createdAt,value
2019-03-04T00:01:13.658Z,12.30
2019-03-04T00:06:08.062Z,12.30
2019-03-04T00:11:08.059Z,12.20
2019-03-04T00:16:19.021Z,12.20
2019-03-04T00:21:15.743Z,12.20
2019-03-04T00:26:11.973Z,12.20
2019-03-04T00:31:10.456Z,12.30
2019-03-04T00:36:14.915Z,12.30
2019-03-04T00:41:10.480Z,12.20
2019-03-04T00:46:07.762Z,12.10
2019-03-04T00:51:09.167Z,12.00
2019-03-04T00:56:09.105Z,11.90
2019-03-04T01:01:08.187Z,11.80
2019-03-04T01:06:18.063Z,11.70
2019-03-04T01:11:14.099Z,11.60
2019-03-04T01:16:13.855Z,11.60
2019-03-04T01:21:18.262Z,11.60
2019-03-04T01:26:17.917Z,11.60
2019-03-04T01:31:14.761Z,11.70
2019-03-04T01:36:18.015Z,11.70
2019-03-04T01:41:14.990Z,11.70
2019-03-04T01:46:16.997Z,11.80
2019-03-04T01:51:12.017Z,11.60
2019-03-04T01:56:10.398Z,11.50
2019-03-04T02:01:07.597Z,11.40
2019-03-04T02:06:07.794Z,11.40
2019-03-04T02:11:09.274Z,11.50
2019-03-04T02:16:11.649Z,11.60
2019-03-04T02:21:07.635Z,11.60
2019-03-04T02:26:14.037Z,11.60
2019-03-04T02:31:10.433Z,11.50
2019-03-04T02:36:16.700Z,11.50
2019-03-04T02:41:13.431Z,11.70
2019-03-04T02:46:13.563Z,11.80
2019-03-04T02:51:08.233Z,11.80
2019-03-04T02:56:10.181Z,11.70
2019-03-04T03:01:06.721Z,11.40
2019-03-04T03:06:08.506Z,11.30
2019-03-04T03:11:05.726Z,11.30
2019-03-04T03:16:08.643Z,11.40
2019-03-04T03:21:09.876Z,11.40
2019-03-04T03:26:08.413Z,11.40
2019-03-04T03:31:10.409Z,11.20
2019-03-04T03:36:09.286Z,11.10
2019-03-04T03:41:11.790Z,11.20
2019-03-04T03:46:10.372Z,11.00
2019-03-04T03:51:07.433Z,10.90
2019-03-04T03:56:08.759Z,10.90
2019-03-04T04:01:07.899Z,10.90
2019-03-04T04:06:08.618Z,10.80
2019-03-04T04:11:05.492Z,10.70
2019-03-04T04:16:01.650Z,10.60
2019-03-04T04:21:00.874Z,10.60
2019-03-04T04:25:56.119Z,10.50
2019-03-04T04:30:51.238Z,10.60
2019-03-04T04:35:45.590Z,10.60
2019-03-04T04:40:41.745Z,10.80
2019-03-04T04:45:37.026Z,10.80
2019-03-04T04:50:33.206Z,10.80
2019-03-04T04:55:30.593Z,10.80
2019-03-04T05:00:31.209Z,10.90
2019-03-04T05:05:25.430Z,11.00
2019-03-04T05:10:24.626Z,11.10
2019-03-04T05:15:20.229Z,11.30
2019-03-04T05:20:17.194Z,11.60
2019-03-04T05:25:14.199Z,11.90
2019-03-04T05:30:12.446Z,12.20
2019-03-04T05:35:06.954Z,12.40
2019-03-04T05:40:03.342Z,12.60
2019-03-04T05:44:57.253Z,12.70
2019-03-04T05:49:52.310Z,12.70
2019-03-04T05:54:48.912Z,12.70
2019-03-04T05:59:43.344Z,12.80
2019-03-04T06:04:39.358Z,12.90
2019-03-04T06:09:33.553Z,12.90
2019-03-04T06:14:33.765Z,13.00
2019-03-04T06:19:28.257Z,13.10
2019-03-04T06:24:24.283Z,13.10
2019-03-04T06:29:23.254Z,13.20
2019-03-04T06:34:17.209Z,13.30
2019-03-04T06:39:11.564Z,13.30
2019-03-04T06:44:05.866Z,13.30
2019-03-04T06:49:00.054Z,13.40
2019-03-04T06:54:03.047Z,13.50
2019-03-04T06:59:10.712Z,13.60
2019-03-04T07:04:18.857Z,13.70
2019-03-04T07:09:18.032Z,13.80
2019-03-04T07:14:12.591Z,13.90
2019-03-04T07:19:08.934Z,14.00
2019-03-04T07:24:08.065Z,14.10
2019-03-04T07:29:03.391Z,14.20
2019-03-04T07:33:58.944Z,14.20
2019-03-04T07:38:56.105Z,14.20
2019-03-04T07:43:53.995Z,14.30
2019-03-04T07:48:49.354Z,14.50
2019-03-04T07:53:46.769Z,14.60
2019-03-04T07:58:43.174Z,14.70
2019-03-04T08:03:43.387Z,14.90
2019-03-04T08:08:38.365Z,15.10
2019-03-04T08:13:51.523Z,15.30
2019-03-04T08:18:48.370Z,15.40
2019-03-04T08:23:44.077Z,15.60
2019-03-04T08:28:39.221Z,15.70
2019-03-04T08:33:35.762Z,15.70
2019-03-04T08:38:30.833Z,15.70
2019-03-04T08:43:25.820Z,15.50
2019-03-04T08:48:25.501Z,15.20
2019-03-04T08:53:21.959Z,14.90
2019-03-04T08:58:18.020Z,14.70
2019-03-04T09:03:12.819Z,15.00
2019-03-04T09:08:08.443Z,14.80
2019-03-04T09:13:06.209Z,14.60
2019-03-04T09:18:04.199Z,14.40
2019-03-04T09:23:01.937Z,14.30
2019-03-04T09:28:00.564Z,14.30
2019-03-04T09:32:58.150Z,14.30
2019-03-04T09:37:54.079Z,14.40
2019-03-04T09:42:51.810Z,14.60
2019-03-04T09:47:50.849Z,14.80
2019-03-04T09:52:47.033Z,14.60
2019-03-04T09:57:46.001Z,14.70
2019-03-04T10:02:41.112Z,15.30
2019-03-04T10:07:48.344Z,18.00
2019-03-04T10:13:02.416Z,21.30
2019-03-04T10:18:04.821Z,25.00
2019-03-04T10:23:11.492Z,25.30
2019-03-04T10:28:29.978Z,22.90
2019-03-04T10:33:28.822Z,21.50
2019-03-04T10:38:31.656Z,19.80
2019-03-04T10:43:50.106Z,18.60
2019-03-04T10:48:50.470Z,17.80
2019-03-04T10:53:42.588Z,17.50
2019-03-04T10:58:38.988Z,17.30
2019-03-04T11:03:37.395Z,17.20
2019-03-04T11:08:33.573Z,17.40
2019-03-04T11:13:28.926Z,18.50
2019-03-04T11:18:28.860Z,18.30
2019-03-04T11:23:24.063Z,18.10
2019-03-04T11:28:19.700Z,18.90
2019-03-04T11:33:15.707Z,21.10
2019-03-04T11:38:33.950Z,22.50
2019-03-04T11:43:29.089Z,25.90
2019-03-04T11:48:25.470Z,27.80
2019-03-04T11:53:24.325Z,27.70
2019-03-04T11:58:18.790Z,26.10
2019-03-04T12:03:16.391Z,23.90
2019-03-04T12:08:18.241Z,21.90
2019-03-04T12:13:09.774Z,21.10
2019-03-04T12:18:07.066Z,20.70
2019-03-04T12:23:06.867Z,20.30
2019-03-04T12:28:02.199Z,20.10
2019-03-04T12:32:56.718Z,19.30
2019-03-04T12:37:52.490Z,18.70
2019-03-04T12:42:50.422Z,18.40
2019-03-04T12:47:49.805Z,18.40
2019-03-04T12:52:45.891Z,18.40
2019-03-04T12:57:48.718Z,18.70
2019-03-04T13:02:46.145Z,18.50
2019-03-04T13:07:40.635Z,18.40
2019-03-04T13:12:37.297Z,18.70
2019-03-04T13:17:34.865Z,18.70
2019-03-04T13:22:34.291Z,18.30
2019-03-04T13:27:28.187Z,17.80
2019-03-04T13:32:24.042Z,17.40
2019-03-04T13:37:21.244Z,17.10
2019-03-04T13:42:15.803Z,17.00
2019-03-04T13:47:12.293Z,16.80
2019-03-04T13:52:13.938Z,16.80
2019-03-04T13:57:09.033Z,16.60
2019-03-04T14:02:19.913Z,16.30
2019-03-04T14:07:15.282Z,16.20
2019-03-04T14:12:12.180Z,16.00
2019-03-04T14:17:06.706Z,15.90
2019-03-04T14:22:01.230Z,15.70
2019-03-04T14:26:56.691Z,15.60
2019-03-04T14:31:50.810Z,15.50
2019-03-04T14:36:48.760Z,15.50
2019-03-04T14:41:44.207Z,15.50
2019-03-04T14:46:41.178Z,15.30
2019-03-04T14:51:38.668Z,15.20
2019-03-04T14:56:33.921Z,15.20
2019-03-04T15:01:28.304Z,15.20
2019-03-04T15:06:22.570Z,15.30
2019-03-04T15:11:16.813Z,15.20
2019-03-04T15:16:12.903Z,15.20
2019-03-04T15:21:09.851Z,15.20
2019-03-04T15:26:09.181Z,15.00
2019-03-04T15:31:07.841Z,14.90
2019-03-04T15:36:05.391Z,14.80
2019-03-04T15:41:04.161Z,14.70
2019-03-04T15:45:59.941Z,14.60
2019-03-04T15:50:56.246Z,14.50
2019-03-04T15:55:50.702Z,14.40
2019-03-04T16:00:45.148Z,14.20
2019-03-04T16:05:40.711Z,14.20
2019-03-04T16:10:42.612Z,14.20
2019-03-04T16:15:42.632Z,14.10
2019-03-04T16:20:37.131Z,14.00
2019-03-04T16:25:35.576Z,14.00
2019-03-04T16:30:31.958Z,13.90
2019-03-04T16:35:27.245Z,13.80
2019-03-04T16:40:22.660Z,13.70
2019-03-04T16:45:21.360Z,13.70
2019-03-04T16:50:25.860Z,13.60
2019-03-04T16:55:17.538Z,13.60
2019-03-04T17:00:15.110Z,13.50
2019-03-04T17:05:12.125Z,12.60
2019-03-04T17:10:12.806Z,12.00
2019-03-04T17:15:15.932Z,11.70
2019-03-04T17:20:12.832Z,11.50
2019-03-04T17:25:11.598Z,11.30
2019-03-04T17:30:14.988Z,11.30
2019-03-04T17:35:11.855Z,11.40
2019-03-04T17:40:09.413Z,11.40
2019-03-04T17:45:13.135Z,11.40
2019-03-04T17:50:11.753Z,11.50
2019-03-04T17:55:09.408Z,11.60
2019-03-04T18:00:11.196Z,11.50
2019-03-04T18:05:07.598Z,11.50
2019-03-04T18:10:10.553Z,11.50
2019-03-04T18:15:11.571Z,11.60
2019-03-04T18:20:11.925Z,11.00
2019-03-04T18:25:15.394Z,10.10
2019-03-04T18:30:17.504Z,9.70
2019-03-04T18:35:21.309Z,9.40
2019-03-04T18:40:40.247Z,9.20
2019-03-04T18:45:52.964Z,9.10
2019-03-04T18:50:58.501Z,8.90
2019-03-04T18:55:55.033Z,8.80
2019-03-04T19:00:49.274Z,8.70
2019-03-04T19:05:43.559Z,8.70
2019-03-04T19:10:37.870Z,8.70
2019-03-04T19:15:37.501Z,8.70
2019-03-04T19:20:34.180Z,8.70
2019-03-04T19:25:28.974Z,8.70
2019-03-04T19:30:25.185Z,8.50
2019-03-04T19:35:19.489Z,8.30
2019-03-04T19:40:17.152Z,8.10
2019-03-04T19:45:15.788Z,8.00
2019-03-04T19:50:11.443Z,7.80
2019-03-04T19:55:15.961Z,7.70
2019-03-04T20:00:20.164Z,7.60
2019-03-04T20:05:17.251Z,7.60
2019-03-04T20:10:14.373Z,7.40
2019-03-04T20:15:17.348Z,7.40
2019-03-04T20:20:12.790Z,7.40
2019-03-04T20:25:12.526Z,7.50
2019-03-04T20:30:25.773Z,7.60
2019-03-04T20:35:23.800Z,7.50
2019-03-04T20:40:21.901Z,7.40
2019-03-04T20:45:24.798Z,7.30
2019-03-04T20:50:21.627Z,7.30
2019-03-04T20:55:20.467Z,7.20
2019-03-04T21:00:26.656Z,7.20
2019-03-04T21:05:22.723Z,7.20
2019-03-04T21:10:17.846Z,7.10
2019-03-04T21:15:16.649Z,7.10
2019-03-04T21:20:12.988Z,7.10
2019-03-04T21:25:14.666Z,7.10
2019-03-04T21:30:18.202Z,7.00
2019-03-04T21:35:32.469Z,7.00
2019-03-04T21:40:40.219Z,7.00
2019-03-04T21:45:56.164Z,7.00
2019-03-04T21:51:14.282Z,6.90
2019-03-04T21:56:30.834Z,6.80
2019-03-04T22:01:40.134Z,6.80
2019-03-04T22:06:39.739Z,6.70
2019-03-04T22:11:34.145Z,6.60
2019-03-04T22:16:28.425Z,6.60
2019-03-04T22:21:23.642Z,6.60
2019-03-04T22:26:17.734Z,6.60
2019-03-04T22:31:13.285Z,6.60
2019-03-04T22:36:14.768Z,6.60
2019-03-04T22:41:13.520Z,6.60
2019-03-04T22:46:06.595Z,6.60
2019-03-04T22:51:02.322Z,6.60
2019-03-04T22:56:09.117Z,6.80
2019-03-04T23:01:44.202Z,6.80
2019-03-04T23:07:05.102Z,6.90
2019-03-04T23:12:22.596Z,6.90
2019-03-04T23:17:17.491Z,7.00
2019-03-04T23:22:12.960Z,7.00
2019-03-04T23:27:27.783Z,6.90
2019-03-04T23:32:25.198Z,6.90
2019-03-04T23:37:23.737Z,6.90
2019-03-04T23:42:35.779Z,6.80
2019-03-04T23:47:31.699Z,6.70
2019-03-04T23:52:39.645Z,6.70
2019-03-04T23:57:35.293Z,6.70
